LVHUS SAVV-SABE
Flight info
| Callsign | LVHUS |
|---|---|
| Flight time | 1h 44m |
| Altitude | 20000 |
| Route | SAVV/29 USES2G USESA DCT SNT SNT8Q SABE/VANAR ILS13Y |
| Aircraft | SF50/L-GS/L |
Departure
| Time | 2026-05-07 00:17 |
|---|---|
| Airport | Gobernador Castello Airport (SAVV) |
Arrival
| Time | 2026-05-07 02:01 |
|---|---|
| Airport | Aeroparque Jorge Newbery (SABE) |
| Time | Latitude | Longitude | Altitude | Speed | Heading |
|---|---|---|---|---|---|
| 2026-05-07 00:13 | -40.87004 | -62.99656 | 18 ft | 0 kts | 0° |
| 2026-05-07 00:14 | -40.87002 | -62.99657 | 18 ft | 3 kts | 321° |
| 2026-05-07 00:14 | -40.87011 | -62.99665 | 18 ft | 1 kts | 140° |
| 2026-05-07 00:14 | -40.87003 | -62.99665 | 18 ft | 0 kts | 288° |
| 2026-05-07 00:16 | -40.87003 | -62.99666 | 18 ft | 0 kts | 285° |
| 2026-05-07 00:16 | -40.86960 | -62.99873 | 18 ft | 59 kts | 287° |
| 2026-05-07 00:16 | -40.86794 | -63.00665 | 27 ft | 117 kts | 285° |
| 2026-05-07 00:16 | -40.86666 | -63.01854 | 113 ft | 153 kts | 264° |
| 2026-05-07 00:17 | -40.87242 | -63.02994 | 665 ft | 150 kts | 213° |
| 2026-05-07 00:17 | -40.88246 | -63.03238 | 1158 ft | 151 kts | 167° |
| 2026-05-07 00:17 | -40.89245 | -63.02880 | 1648 ft | 152 kts | 180° |
| 2026-05-07 00:17 | -40.90191 | -63.03405 | 2126 ft | 153 kts | 223° |
| 2026-05-07 00:18 | -40.90620 | -63.04668 | 2613 ft | 158 kts | 272° |
| 2026-05-07 00:18 | -40.90243 | -63.05894 | 3396 ft | 149 kts | 315° |
| 2026-05-07 00:18 | -40.89325 | -63.06445 | 3991 ft | 150 kts | 0° |
| 2026-05-07 00:18 | -40.88393 | -63.05973 | 4659 ft | 150 kts | 37° |
| 2026-05-07 00:19 | -40.87608 | -63.05064 | 5271 ft | 153 kts | 40° |
| 2026-05-07 00:19 | -40.86831 | -63.04133 | 5756 ft | 154 kts | 40° |
| 2026-05-07 00:19 | -40.86002 | -63.03286 | 6267 ft | 154 kts | 32° |
| 2026-05-07 00:19 | -40.85071 | -63.02594 | 6771 ft | 154 kts | 25° |
| 2026-05-07 00:20 | -40.84096 | -63.02032 | 7211 ft | 157 kts | 19° |
| 2026-05-07 00:20 | -40.83064 | -63.01543 | 7696 ft | 158 kts | 17° |
| 2026-05-07 00:20 | -40.82029 | -63.01121 | 8176 ft | 158 kts | 14° |
| 2026-05-07 00:20 | -40.80971 | -63.00733 | 8614 ft | 160 kts | 13° |
| 2026-05-07 00:21 | -40.79890 | -63.00365 | 9064 ft | 161 kts | 12° |
| 2026-05-07 00:21 | -40.78804 | -63.00013 | 9527 ft | 162 kts | 12° |
| 2026-05-07 00:21 | -40.77712 | -62.99671 | 9986 ft | 164 kts | 11° |
| 2026-05-07 00:21 | -40.76602 | -62.99331 | 10456 ft | 165 kts | 11° |
| 2026-05-07 00:22 | -40.75489 | -62.98995 | 10905 ft | 166 kts | 11° |
| 2026-05-07 00:22 | -40.74368 | -62.98663 | 11334 ft | 168 kts | 10° |
| 2026-05-07 00:22 | -40.73224 | -62.98321 | 11775 ft | 169 kts | 10° |
| 2026-05-07 00:22 | -40.72080 | -62.97981 | 12198 ft | 171 kts | 10° |
| 2026-05-07 00:23 | -40.70914 | -62.97635 | 12623 ft | 172 kts | 10° |
| 2026-05-07 00:23 | -40.69754 | -62.97292 | 13034 ft | 174 kts | 10° |
| 2026-05-07 00:23 | -40.68585 | -62.96947 | 13437 ft | 175 kts | 9° |
| 2026-05-07 00:23 | -40.67390 | -62.96595 | 13838 ft | 176 kts | 9° |
| 2026-05-07 00:24 | -40.66200 | -62.96244 | 14227 ft | 178 kts | 9° |
| 2026-05-07 00:24 | -40.64986 | -62.95887 | 14614 ft | 179 kts | 9° |
| 2026-05-07 00:24 | -40.63766 | -62.95528 | 14992 ft | 181 kts | 9° |
| 2026-05-07 00:24 | -40.62550 | -62.95170 | 15360 ft | 182 kts | 9° |
| 2026-05-07 00:25 | -40.61303 | -62.94803 | 15727 ft | 184 kts | 9° |
| 2026-05-07 00:25 | -40.60061 | -62.94438 | 16084 ft | 185 kts | 9° |
| 2026-05-07 00:25 | -40.58810 | -62.94071 | 16434 ft | 187 kts | 9° |
| 2026-05-07 00:25 | -40.57956 | -62.93820 | 16668 ft | 188 kts | 9° |
| 2026-05-07 00:26 | -40.56257 | -62.93321 | 17122 ft | 190 kts | 9° |
| 2026-05-07 00:26 | -40.54968 | -62.92943 | 17456 ft | 191 kts | 9° |
| 2026-05-07 00:26 | -40.53671 | -62.92563 | 17784 ft | 192 kts | 9° |
| 2026-05-07 00:26 | -40.52362 | -62.92179 | 18108 ft | 194 kts | 9° |
| 2026-05-07 00:27 | -40.51047 | -62.91793 | 18425 ft | 195 kts | 9° |
| 2026-05-07 00:27 | -40.49725 | -62.91406 | 18737 ft | 197 kts | 9° |
| 2026-05-07 00:27 | -40.48384 | -62.91014 | 19045 ft | 198 kts | 9° |
| 2026-05-07 00:27 | -40.47037 | -62.90619 | 19348 ft | 199 kts | 9° |
| 2026-05-07 00:28 | -40.45679 | -62.90222 | 19646 ft | 201 kts | 9° |
| 2026-05-07 00:28 | -40.44316 | -62.89823 | 19938 ft | 202 kts | 9° |
| 2026-05-07 00:28 | -40.42931 | -62.89420 | 20126 ft | 209 kts | 9° |
| 2026-05-07 00:28 | -40.41479 | -62.88998 | 20147 ft | 224 kts | 9° |
| 2026-05-07 00:29 | -40.39910 | -62.88541 | 20148 ft | 239 kts | 9° |
| 2026-05-07 00:29 | -40.38250 | -62.88052 | 20146 ft | 252 kts | 12° |
| 2026-05-07 00:30 | -40.34452 | -62.82795 | 20145 ft | 283 kts | 53° |
| 2026-05-07 00:30 | -40.33285 | -62.80676 | 20145 ft | 289 kts | 53° |
| 2026-05-07 00:30 | -40.32085 | -62.78543 | 20145 ft | 294 kts | 49° |
| 2026-05-07 00:30 | -40.30564 | -62.76703 | 20150 ft | 297 kts | 34° |
| 2026-05-07 00:31 | -40.28800 | -62.75267 | 20148 ft | 300 kts | 27° |
| 2026-05-07 00:31 | -40.26933 | -62.74007 | 20145 ft | 302 kts | 24° |
| 2026-05-07 00:31 | -40.25048 | -62.72829 | 20144 ft | 304 kts | 23° |
| 2026-05-07 00:31 | -40.23133 | -62.71668 | 20143 ft | 306 kts | 23° |
| 2026-05-07 00:32 | -40.21184 | -62.70501 | 20143 ft | 308 kts | 22° |
| 2026-05-07 00:32 | -40.19223 | -62.69331 | 20143 ft | 309 kts | 22° |
| 2026-05-07 00:32 | -40.17288 | -62.68178 | 20143 ft | 310 kts | 22° |
| 2026-05-07 00:32 | -40.15312 | -62.67003 | 20143 ft | 311 kts | 22° |
| 2026-05-07 00:33 | -40.13356 | -62.65840 | 20143 ft | 312 kts | 22° |
| 2026-05-07 00:33 | -40.11369 | -62.64661 | 20143 ft | 312 kts | 22° |
| 2026-05-07 00:33 | -40.09414 | -62.63500 | 20143 ft | 313 kts | 22° |
| 2026-05-07 00:33 | -40.07438 | -62.62328 | 20143 ft | 313 kts | 22° |
| 2026-05-07 00:34 | -40.05451 | -62.61150 | 20143 ft | 313 kts | 22° |
| 2026-05-07 00:34 | -40.03484 | -62.59985 | 20143 ft | 313 kts | 22° |
| 2026-05-07 00:34 | -40.01499 | -62.58810 | 20143 ft | 314 kts | 22° |
| 2026-05-07 00:34 | -39.99502 | -62.57628 | 20143 ft | 314 kts | 22° |
| 2026-05-07 00:35 | -39.97527 | -62.56461 | 20141 ft | 314 kts | 22° |
| 2026-05-07 00:35 | -39.95540 | -62.55286 | 20137 ft | 314 kts | 22° |
| 2026-05-07 00:35 | -39.93560 | -62.54118 | 20133 ft | 314 kts | 22° |
| 2026-05-07 00:35 | -39.91554 | -62.52934 | 20127 ft | 315 kts | 22° |
| 2026-05-07 00:36 | -39.89562 | -62.51759 | 20120 ft | 315 kts | 22° |
| 2026-05-07 00:36 | -39.87581 | -62.50592 | 20112 ft | 315 kts | 22° |
| 2026-05-07 00:36 | -39.85573 | -62.49409 | 20103 ft | 315 kts | 22° |
| 2026-05-07 00:36 | -39.83572 | -62.48231 | 20094 ft | 315 kts | 22° |
| 2026-05-07 00:37 | -39.81573 | -62.47055 | 20085 ft | 315 kts | 22° |
| 2026-05-07 00:37 | -39.79603 | -62.45897 | 20079 ft | 315 kts | 22° |
| 2026-05-07 00:37 | -39.77603 | -62.44722 | 20074 ft | 315 kts | 22° |
| 2026-05-07 00:37 | -39.75599 | -62.43545 | 20069 ft | 315 kts | 22° |
| 2026-05-07 00:38 | -39.73623 | -62.42387 | 20066 ft | 315 kts | 22° |
| 2026-05-07 00:38 | -39.71617 | -62.41210 | 20064 ft | 315 kts | 22° |
| 2026-05-07 00:38 | -39.69630 | -62.40046 | 20062 ft | 315 kts | 22° |
| 2026-05-07 00:38 | -39.67624 | -62.38871 | 20062 ft | 315 kts | 22° |
| 2026-05-07 00:39 | -39.65647 | -62.37714 | 20062 ft | 315 kts | 22° |
| 2026-05-07 00:39 | -39.63647 | -62.36544 | 20062 ft | 315 kts | 22° |
| 2026-05-07 00:39 | -39.61653 | -62.35379 | 20062 ft | 315 kts | 22° |
| 2026-05-07 00:39 | -39.59657 | -62.34213 | 20060 ft | 315 kts | 22° |
| 2026-05-07 00:40 | -39.57668 | -62.33051 | 20060 ft | 315 kts | 22° |
| 2026-05-07 00:40 | -39.55697 | -62.31902 | 20060 ft | 314 kts | 22° |
| 2026-05-07 00:40 | -39.53697 | -62.30735 | 20060 ft | 314 kts | 22° |
| 2026-05-07 00:40 | -39.51706 | -62.29576 | 20060 ft | 314 kts | 22° |
| 2026-05-07 00:41 | -39.49707 | -62.28411 | 20060 ft | 314 kts | 22° |
| 2026-05-07 00:41 | -39.47713 | -62.27251 | 20060 ft | 314 kts | 22° |
| 2026-05-07 00:41 | -39.45732 | -62.26099 | 20060 ft | 314 kts | 22° |
| 2026-05-07 00:41 | -39.43744 | -62.24943 | 20060 ft | 314 kts | 22° |
| 2026-05-07 00:42 | -39.41752 | -62.23787 | 20060 ft | 314 kts | 22° |
| 2026-05-07 00:42 | -39.39766 | -62.22634 | 20060 ft | 314 kts | 22° |
| 2026-05-07 00:42 | -39.37785 | -62.21485 | 20060 ft | 314 kts | 22° |
| 2026-05-07 00:42 | -39.35798 | -62.20333 | 20060 ft | 314 kts | 22° |
| 2026-05-07 00:43 | -39.33807 | -62.19179 | 20060 ft | 314 kts | 22° |
| 2026-05-07 00:43 | -39.31815 | -62.18026 | 20060 ft | 314 kts | 22° |
| 2026-05-07 00:43 | -39.29809 | -62.16870 | 20061 ft | 314 kts | 22° |
| 2026-05-07 00:43 | -39.27816 | -62.15716 | 20061 ft | 314 kts | 22° |
| 2026-05-07 00:44 | -39.25847 | -62.14575 | 20060 ft | 314 kts | 22° |
| 2026-05-07 00:44 | -39.23857 | -62.13428 | 20060 ft | 314 kts | 22° |
| 2026-05-07 00:44 | -39.21859 | -62.12278 | 20060 ft | 314 kts | 22° |
| 2026-05-07 00:44 | -39.19868 | -62.11125 | 20061 ft | 314 kts | 22° |
| 2026-05-07 00:45 | -39.18296 | -62.10214 | 20061 ft | 314 kts | 22° |
| 2026-05-07 00:45 | -39.16319 | -62.09072 | 20061 ft | 314 kts | 22° |
| 2026-05-07 00:45 | -39.14316 | -62.07918 | 20061 ft | 314 kts | 22° |
| 2026-05-07 00:45 | -39.12320 | -62.06769 | 20061 ft | 314 kts | 22° |
| 2026-05-07 00:46 | -39.10336 | -62.05632 | 20061 ft | 314 kts | 22° |
| 2026-05-07 00:46 | -39.08334 | -62.04481 | 20060 ft | 314 kts | 22° |
| 2026-05-07 00:46 | -39.06350 | -62.03342 | 20061 ft | 314 kts | 22° |
| 2026-05-07 00:46 | -39.04366 | -62.02204 | 20061 ft | 314 kts | 22° |
| 2026-05-07 00:47 | -39.02379 | -62.01066 | 20061 ft | 314 kts | 22° |
| 2026-05-07 00:47 | -39.00370 | -61.99910 | 20061 ft | 314 kts | 22° |
| 2026-05-07 00:47 | -38.98382 | -61.98769 | 20061 ft | 314 kts | 22° |
| 2026-05-07 00:47 | -38.96407 | -61.97638 | 20061 ft | 314 kts | 22° |
| 2026-05-07 00:48 | -38.94405 | -61.96492 | 20061 ft | 313 kts | 22° |
| 2026-05-07 00:48 | -38.92426 | -61.95360 | 20061 ft | 313 kts | 22° |
| 2026-05-07 00:48 | -38.90449 | -61.94230 | 20061 ft | 313 kts | 22° |
| 2026-05-07 00:48 | -38.88466 | -61.93097 | 20061 ft | 312 kts | 22° |
| 2026-05-07 00:49 | -38.86481 | -61.91964 | 20061 ft | 312 kts | 22° |
| 2026-05-07 00:49 | -38.84499 | -61.90834 | 20061 ft | 311 kts | 22° |
| 2026-05-07 00:49 | -38.82524 | -61.89707 | 20061 ft | 311 kts | 22° |
| 2026-05-07 00:49 | -38.80571 | -61.88594 | 20061 ft | 311 kts | 22° |
| 2026-05-07 00:50 | -38.78602 | -61.87473 | 20061 ft | 311 kts | 22° |
| 2026-05-07 00:50 | -38.76631 | -61.86351 | 20061 ft | 311 kts | 22° |
| 2026-05-07 00:50 | -38.74653 | -61.85226 | 20061 ft | 310 kts | 22° |
| 2026-05-07 00:50 | -38.72696 | -61.84114 | 20061 ft | 310 kts | 22° |
| 2026-05-07 00:51 | -38.70711 | -61.82986 | 20061 ft | 310 kts | 22° |
| 2026-05-07 00:51 | -38.68755 | -61.81876 | 20061 ft | 310 kts | 22° |
| 2026-05-07 00:51 | -38.66788 | -61.80760 | 20061 ft | 310 kts | 22° |
| 2026-05-07 00:51 | -38.64808 | -61.79637 | 20061 ft | 310 kts | 22° |
| 2026-05-07 00:52 | -38.62832 | -61.78516 | 20061 ft | 310 kts | 22° |
| 2026-05-07 00:52 | -38.60881 | -61.77412 | 20061 ft | 310 kts | 22° |
| 2026-05-07 00:52 | -38.58892 | -61.76286 | 20061 ft | 310 kts | 22° |
| 2026-05-07 00:52 | -38.56941 | -61.75182 | 20061 ft | 310 kts | 22° |
| 2026-05-07 00:53 | -38.54957 | -61.74061 | 20061 ft | 310 kts | 22° |
| 2026-05-07 00:53 | -38.53002 | -61.72956 | 20061 ft | 310 kts | 22° |
| 2026-05-07 00:53 | -38.51042 | -61.71849 | 20061 ft | 310 kts | 22° |
| 2026-05-07 00:53 | -38.49061 | -61.70731 | 20061 ft | 310 kts | 22° |
| 2026-05-07 00:54 | -38.47087 | -61.69618 | 20061 ft | 310 kts | 22° |
| 2026-05-07 00:54 | -38.45783 | -61.68883 | 20061 ft | 310 kts | 22° |
| 2026-05-07 00:54 | -38.43158 | -61.67404 | 20061 ft | 310 kts | 22° |
| 2026-05-07 00:54 | -38.41341 | -61.66381 | 20061 ft | 310 kts | 22° |
| 2026-05-07 00:55 | -38.39372 | -61.65272 | 20061 ft | 310 kts | 22° |
| 2026-05-07 00:55 | -38.37398 | -61.64163 | 20062 ft | 310 kts | 22° |
| 2026-05-07 00:55 | -38.35417 | -61.63049 | 20062 ft | 310 kts | 22° |
| 2026-05-07 00:55 | -38.33441 | -61.61939 | 20062 ft | 310 kts | 22° |
| 2026-05-07 00:56 | -38.32143 | -61.61211 | 20062 ft | 310 kts | 22° |
| 2026-05-07 00:56 | -38.30176 | -61.60107 | 20062 ft | 310 kts | 22° |
| 2026-05-07 00:56 | -38.27391 | -61.59314 | 20052 ft | 308 kts | 10° |
| 2026-05-07 00:56 | -38.25482 | -61.58146 | 20064 ft | 311 kts | 31° |
| 2026-05-07 00:57 | -38.23622 | -61.56691 | 20063 ft | 311 kts | 28° |
| 2026-05-07 00:57 | -38.21757 | -61.55391 | 20063 ft | 311 kts | 26° |
| 2026-05-07 00:57 | -38.19828 | -61.54126 | 20062 ft | 311 kts | 25° |
| 2026-05-07 00:57 | -38.17894 | -61.52887 | 20062 ft | 311 kts | 25° |
| 2026-05-07 00:58 | -38.15987 | -61.51677 | 20062 ft | 311 kts | 25° |
| 2026-05-07 00:58 | -38.14053 | -61.50454 | 20062 ft | 311 kts | 25° |
| 2026-05-07 00:58 | -38.12126 | -61.49237 | 20062 ft | 311 kts | 25° |
| 2026-05-07 00:58 | -38.10188 | -61.48015 | 20062 ft | 311 kts | 25° |
| 2026-05-07 00:59 | -38.06326 | -61.45581 | 20062 ft | 311 kts | 25° |
| 2026-05-07 00:59 | -38.04401 | -61.44369 | 20062 ft | 311 kts | 25° |
| 2026-05-07 00:59 | -38.02454 | -61.43144 | 20062 ft | 311 kts | 25° |
| 2026-05-07 01:00 | -38.00526 | -61.41931 | 20062 ft | 311 kts | 25° |
| 2026-05-07 01:00 | -37.98576 | -61.40706 | 20062 ft | 311 kts | 25° |
| 2026-05-07 01:00 | -37.96656 | -61.39500 | 20062 ft | 311 kts | 25° |
| 2026-05-07 01:00 | -37.94711 | -61.38278 | 20062 ft | 311 kts | 25° |
| 2026-05-07 01:01 | -37.92775 | -61.37064 | 20062 ft | 311 kts | 25° |
| 2026-05-07 01:01 | -37.90853 | -61.35859 | 20062 ft | 311 kts | 25° |
| 2026-05-07 01:01 | -37.88969 | -61.34485 | 20061 ft | 312 kts | 30° |
| 2026-05-07 01:01 | -37.87152 | -61.32995 | 20060 ft | 312 kts | 31° |
| 2026-05-07 01:02 | -37.85350 | -61.31477 | 20060 ft | 312 kts | 32° |
| 2026-05-07 01:02 | -37.83552 | -61.29953 | 20060 ft | 312 kts | 32° |
| 2026-05-07 01:02 | -37.81773 | -61.28440 | 20060 ft | 312 kts | 32° |
| 2026-05-07 01:02 | -37.79970 | -61.26908 | 20060 ft | 312 kts | 32° |
| 2026-05-07 01:03 | -37.78161 | -61.25370 | 20060 ft | 312 kts | 32° |
| 2026-05-07 01:03 | -37.76374 | -61.23852 | 20060 ft | 312 kts | 32° |
| 2026-05-07 01:03 | -37.74581 | -61.22329 | 20060 ft | 312 kts | 32° |
| 2026-05-07 01:03 | -37.72780 | -61.20802 | 20060 ft | 312 kts | 32° |
| 2026-05-07 01:04 | -37.70991 | -61.19284 | 20060 ft | 312 kts | 32° |
| 2026-05-07 01:04 | -37.69191 | -61.17758 | 20060 ft | 312 kts | 32° |
| 2026-05-07 01:04 | -37.67409 | -61.16169 | 20058 ft | 313 kts | 36° |
| 2026-05-07 01:04 | -37.65709 | -61.14465 | 20060 ft | 313 kts | 37° |
| 2026-05-07 01:05 | -37.64014 | -61.12725 | 20060 ft | 314 kts | 37° |
| 2026-05-07 01:05 | -37.62335 | -61.10990 | 20060 ft | 314 kts | 37° |
| 2026-05-07 01:05 | -37.60643 | -61.09240 | 20060 ft | 314 kts | 37° |
| 2026-05-07 01:05 | -37.58973 | -61.07513 | 20060 ft | 315 kts | 37° |
| 2026-05-07 01:06 | -37.57278 | -61.05761 | 20055 ft | 316 kts | 37° |
| 2026-05-07 01:06 | -37.55573 | -61.04000 | 20049 ft | 316 kts | 37° |
| 2026-05-07 01:06 | -37.53869 | -61.02240 | 20042 ft | 317 kts | 37° |
| 2026-05-07 01:06 | -37.52161 | -61.00478 | 20034 ft | 318 kts | 37° |
| 2026-05-07 01:07 | -37.50450 | -60.98713 | 20024 ft | 319 kts | 37° |
| 2026-05-07 01:07 | -37.48752 | -60.96963 | 20013 ft | 319 kts | 37° |
| 2026-05-07 01:07 | -37.47031 | -60.95190 | 20001 ft | 320 kts | 37° |
| 2026-05-07 01:07 | -37.45309 | -60.93418 | 19991 ft | 321 kts | 37° |
| 2026-05-07 01:08 | -37.43583 | -60.91642 | 19983 ft | 321 kts | 37° |
| 2026-05-07 01:08 | -37.41859 | -60.89870 | 19980 ft | 322 kts | 37° |
| 2026-05-07 01:08 | -37.40129 | -60.88092 | 19980 ft | 322 kts | 37° |
| 2026-05-07 01:08 | -37.38395 | -60.86312 | 19980 ft | 322 kts | 37° |
| 2026-05-07 01:09 | -37.36658 | -60.84529 | 19980 ft | 322 kts | 37° |
| 2026-05-07 01:09 | -37.34946 | -60.82773 | 19981 ft | 322 kts | 37° |
| 2026-05-07 01:09 | -37.33212 | -60.80996 | 19981 ft | 322 kts | 37° |
| 2026-05-07 01:09 | -37.31479 | -60.79221 | 19981 ft | 322 kts | 37° |
| 2026-05-07 01:10 | -37.29756 | -60.77457 | 19981 ft | 322 kts | 37° |
| 2026-05-07 01:10 | -37.28016 | -60.75677 | 19981 ft | 322 kts | 37° |
| 2026-05-07 01:10 | -37.26275 | -60.73897 | 19981 ft | 322 kts | 37° |
| 2026-05-07 01:10 | -37.24615 | -60.72200 | 19981 ft | 322 kts | 37° |
| 2026-05-07 01:11 | -37.22876 | -60.70424 | 19981 ft | 322 kts | 37° |
| 2026-05-07 01:11 | -37.21154 | -60.68667 | 19981 ft | 322 kts | 37° |
| 2026-05-07 01:11 | -37.19411 | -60.66889 | 19981 ft | 322 kts | 37° |
| 2026-05-07 01:11 | -37.17685 | -60.65130 | 19981 ft | 322 kts | 37° |
| 2026-05-07 01:12 | -37.15939 | -60.63351 | 19982 ft | 322 kts | 37° |
| 2026-05-07 01:12 | -37.14224 | -60.61605 | 20046 ft | 320 kts | 37° |
| 2026-05-07 01:12 | -37.12500 | -60.59851 | 20061 ft | 320 kts | 37° |
| 2026-05-07 01:12 | -37.10764 | -60.58086 | 20063 ft | 320 kts | 37° |
| 2026-05-07 01:13 | -37.09036 | -60.56330 | 20063 ft | 320 kts | 37° |
| 2026-05-07 01:13 | -37.07323 | -60.54590 | 20063 ft | 320 kts | 37° |
| 2026-05-07 01:13 | -37.05591 | -60.52832 | 20063 ft | 320 kts | 37° |
| 2026-05-07 01:13 | -37.03856 | -60.51072 | 20063 ft | 320 kts | 37° |
| 2026-05-07 01:14 | -37.02125 | -60.49318 | 20063 ft | 320 kts | 37° |
| 2026-05-07 01:14 | -37.00418 | -60.47588 | 20063 ft | 320 kts | 37° |
| 2026-05-07 01:14 | -36.98690 | -60.45838 | 20063 ft | 320 kts | 37° |
| 2026-05-07 01:14 | -36.96966 | -60.44093 | 20063 ft | 319 kts | 37° |
| 2026-05-07 01:15 | -36.95237 | -60.42345 | 20063 ft | 319 kts | 37° |
| 2026-05-07 01:15 | -36.93499 | -60.40588 | 20060 ft | 319 kts | 37° |
| 2026-05-07 01:15 | -36.91783 | -60.38855 | 20055 ft | 319 kts | 37° |
| 2026-05-07 01:15 | -36.90061 | -60.37116 | 20049 ft | 319 kts | 37° |
| 2026-05-07 01:16 | -36.88332 | -60.35372 | 20041 ft | 319 kts | 37° |
| 2026-05-07 01:16 | -36.86623 | -60.33649 | 20028 ft | 319 kts | 36° |
| 2026-05-07 01:16 | -36.84893 | -60.31906 | 20016 ft | 319 kts | 36° |
| 2026-05-07 01:16 | -36.83172 | -60.30172 | 20003 ft | 319 kts | 36° |
| 2026-05-07 01:17 | -36.81448 | -60.28437 | 19988 ft | 319 kts | 36° |
| 2026-05-07 01:17 | -36.79724 | -60.26703 | 19972 ft | 319 kts | 36° |
| 2026-05-07 01:17 | -36.77998 | -60.24967 | 19960 ft | 319 kts | 36° |
| 2026-05-07 01:17 | -36.76254 | -60.23215 | 19953 ft | 319 kts | 36° |
| 2026-05-07 01:18 | -36.74528 | -60.21482 | 19952 ft | 319 kts | 36° |
| 2026-05-07 01:18 | -36.72807 | -60.19755 | 19952 ft | 319 kts | 36° |
| 2026-05-07 01:18 | -36.71082 | -60.18025 | 19952 ft | 318 kts | 36° |
| 2026-05-07 01:18 | -36.69367 | -60.16305 | 19952 ft | 318 kts | 36° |
| 2026-05-07 01:19 | -36.67650 | -60.14586 | 19952 ft | 318 kts | 36° |
| 2026-05-07 01:19 | -36.65933 | -60.12867 | 19952 ft | 318 kts | 36° |
| 2026-05-07 01:19 | -36.64217 | -60.11149 | 19952 ft | 318 kts | 36° |
| 2026-05-07 01:19 | -36.62497 | -60.09430 | 19952 ft | 318 kts | 36° |
| 2026-05-07 01:20 | -36.60764 | -60.07698 | 19952 ft | 318 kts | 36° |
| 2026-05-07 01:20 | -36.59024 | -60.05960 | 19952 ft | 318 kts | 36° |
| 2026-05-07 01:20 | -36.57311 | -60.04250 | 19952 ft | 318 kts | 36° |
| 2026-05-07 01:20 | -36.55595 | -60.02538 | 19953 ft | 318 kts | 36° |
| 2026-05-07 01:21 | -36.53879 | -60.00827 | 19953 ft | 318 kts | 36° |
| 2026-05-07 01:21 | -36.52163 | -59.99117 | 19953 ft | 318 kts | 36° |
| 2026-05-07 01:21 | -36.50427 | -59.97389 | 19953 ft | 318 kts | 36° |
| 2026-05-07 01:21 | -36.48708 | -59.95678 | 19953 ft | 318 kts | 36° |
| 2026-05-07 01:22 | -36.46977 | -59.93956 | 19953 ft | 318 kts | 36° |
| 2026-05-07 01:22 | -36.45257 | -59.92248 | 19953 ft | 318 kts | 36° |
| 2026-05-07 01:22 | -36.43533 | -59.90535 | 19953 ft | 318 kts | 36° |
| 2026-05-07 01:22 | -36.41814 | -59.88827 | 19953 ft | 318 kts | 36° |
| 2026-05-07 01:23 | -36.40096 | -59.87121 | 19953 ft | 318 kts | 36° |
| 2026-05-07 01:23 | -36.38376 | -59.85416 | 19953 ft | 318 kts | 36° |
| 2026-05-07 01:23 | -36.36653 | -59.83707 | 19953 ft | 318 kts | 36° |
| 2026-05-07 01:23 | -36.34930 | -59.82001 | 19953 ft | 318 kts | 36° |
| 2026-05-07 01:24 | -36.33198 | -59.80286 | 19953 ft | 318 kts | 36° |
| 2026-05-07 01:24 | -36.31471 | -59.78578 | 19953 ft | 318 kts | 36° |
| 2026-05-07 01:24 | -36.29733 | -59.76859 | 19954 ft | 318 kts | 36° |
| 2026-05-07 01:24 | -36.28008 | -59.75154 | 19954 ft | 318 kts | 36° |
| 2026-05-07 01:25 | -36.26287 | -59.73454 | 19954 ft | 318 kts | 36° |
| 2026-05-07 01:25 | -36.24565 | -59.71755 | 19954 ft | 318 kts | 36° |
| 2026-05-07 01:25 | -36.22838 | -59.70050 | 19954 ft | 318 kts | 36° |
| 2026-05-07 01:25 | -36.21117 | -59.68353 | 19954 ft | 318 kts | 36° |
| 2026-05-07 01:26 | -36.19388 | -59.66650 | 19954 ft | 318 kts | 36° |
| 2026-05-07 01:26 | -36.17643 | -59.64931 | 19954 ft | 318 kts | 36° |
| 2026-05-07 01:26 | -36.15912 | -59.63227 | 19954 ft | 318 kts | 36° |
| 2026-05-07 01:26 | -36.14183 | -59.61527 | 19954 ft | 318 kts | 36° |
| 2026-05-07 01:27 | -36.12458 | -59.59831 | 19954 ft | 318 kts | 36° |
| 2026-05-07 01:27 | -36.10735 | -59.58137 | 19954 ft | 318 kts | 36° |
| 2026-05-07 01:27 | -36.08987 | -59.56423 | 19954 ft | 318 kts | 36° |
| 2026-05-07 01:27 | -36.07278 | -59.54747 | 19954 ft | 318 kts | 36° |
| 2026-05-07 01:28 | -36.06123 | -59.53614 | 19954 ft | 318 kts | 36° |
| 2026-05-07 01:28 | -36.03804 | -59.51340 | 19954 ft | 318 kts | 36° |
| 2026-05-07 01:28 | -36.02065 | -59.49637 | 19954 ft | 318 kts | 36° |
| 2026-05-07 01:28 | -36.00328 | -59.47936 | 19955 ft | 318 kts | 36° |
| 2026-05-07 01:29 | -35.98595 | -59.46243 | 19954 ft | 318 kts | 36° |
| 2026-05-07 01:29 | -35.97160 | -59.44840 | 19954 ft | 318 kts | 36° |
| 2026-05-07 01:29 | -35.95434 | -59.43154 | 19955 ft | 318 kts | 36° |
| 2026-05-07 01:29 | -35.93680 | -59.41441 | 19955 ft | 318 kts | 36° |
| 2026-05-07 01:30 | -35.91949 | -59.39748 | 19955 ft | 319 kts | 36° |
| 2026-05-07 01:30 | -35.90215 | -59.38053 | 19955 ft | 319 kts | 36° |
| 2026-05-07 01:30 | -35.88488 | -59.36369 | 19955 ft | 319 kts | 36° |
| 2026-05-07 01:30 | -35.86752 | -59.34677 | 19954 ft | 319 kts | 36° |
| 2026-05-07 01:31 | -35.85014 | -59.32982 | 19951 ft | 318 kts | 36° |
| 2026-05-07 01:31 | -35.83279 | -59.31291 | 19951 ft | 318 kts | 36° |
| 2026-05-07 01:31 | -35.81544 | -59.29602 | 19952 ft | 316 kts | 36° |
| 2026-05-07 01:31 | -35.79911 | -59.28009 | 19943 ft | 285 kts | 36° |
| 2026-05-07 01:32 | -35.78447 | -59.26582 | 19943 ft | 258 kts | 35° |
| 2026-05-07 01:32 | -35.77091 | -59.25262 | 19944 ft | 238 kts | 35° |
| 2026-05-07 01:32 | -35.75823 | -59.24031 | 19946 ft | 228 kts | 35° |
| 2026-05-07 01:32 | -35.74595 | -59.22839 | 19943 ft | 222 kts | 34° |
| 2026-05-07 01:33 | -35.73430 | -59.21708 | 19941 ft | 210 kts | 34° |
| 2026-05-07 01:33 | -35.72306 | -59.20616 | 19940 ft | 199 kts | 34° |
| 2026-05-07 01:33 | -35.71236 | -59.19579 | 19861 ft | 198 kts | 34° |
| 2026-05-07 01:33 | -35.70113 | -59.18496 | 19692 ft | 213 kts | 34° |
| 2026-05-07 01:34 | -35.68908 | -59.17332 | 19494 ft | 229 kts | 35° |
| 2026-05-07 01:34 | -35.67623 | -59.16089 | 19275 ft | 242 kts | 35° |
| 2026-05-07 01:34 | -35.66270 | -59.14780 | 19040 ft | 254 kts | 35° |
| 2026-05-07 01:34 | -35.64862 | -59.13417 | 18792 ft | 263 kts | 36° |
| 2026-05-07 01:35 | -35.63408 | -59.12011 | 18536 ft | 271 kts | 36° |
| 2026-05-07 01:35 | -35.61911 | -59.10564 | 18273 ft | 278 kts | 36° |
| 2026-05-07 01:35 | -35.60381 | -59.09087 | 18006 ft | 282 kts | 36° |
| 2026-05-07 01:35 | -35.58823 | -59.07582 | 17734 ft | 286 kts | 36° |
| 2026-05-07 01:36 | -35.57252 | -59.06065 | 17461 ft | 289 kts | 36° |
| 2026-05-07 01:36 | -35.55671 | -59.04540 | 17187 ft | 291 kts | 36° |
| 2026-05-07 01:36 | -35.54084 | -59.03011 | 16913 ft | 292 kts | 36° |
| 2026-05-07 01:36 | -35.52469 | -59.01454 | 16636 ft | 294 kts | 36° |
| 2026-05-07 01:37 | -35.50866 | -58.99910 | 16361 ft | 294 kts | 37° |
| 2026-05-07 01:37 | -35.49262 | -58.98366 | 16087 ft | 295 kts | 37° |
| 2026-05-07 01:37 | -35.47653 | -58.96817 | 15813 ft | 295 kts | 37° |
| 2026-05-07 01:37 | -35.46040 | -58.95267 | 15538 ft | 296 kts | 37° |
| 2026-05-07 01:38 | -35.44430 | -58.93719 | 15264 ft | 296 kts | 37° |
| 2026-05-07 01:38 | -35.42816 | -58.92168 | 14990 ft | 296 kts | 37° |
| 2026-05-07 01:38 | -35.41206 | -58.90622 | 14717 ft | 296 kts | 37° |
| 2026-05-07 01:38 | -35.39571 | -58.89053 | 14439 ft | 296 kts | 37° |
| 2026-05-07 01:39 | -35.37968 | -58.87516 | 14168 ft | 295 kts | 37° |
| 2026-05-07 01:39 | -35.36352 | -58.85966 | 13893 ft | 295 kts | 38° |
| 2026-05-07 01:39 | -35.34739 | -58.84421 | 13620 ft | 295 kts | 38° |
| 2026-05-07 01:39 | -35.33119 | -58.82870 | 13346 ft | 294 kts | 38° |
| 2026-05-07 01:40 | -35.31521 | -58.81340 | 13075 ft | 294 kts | 38° |
| 2026-05-07 01:40 | -35.29917 | -58.79805 | 12803 ft | 294 kts | 38° |
| 2026-05-07 01:40 | -35.28298 | -58.78257 | 12529 ft | 293 kts | 38° |
| 2026-05-07 01:40 | -35.26709 | -58.76739 | 12259 ft | 293 kts | 38° |
| 2026-05-07 01:41 | -35.25116 | -58.75217 | 11989 ft | 292 kts | 38° |
| 2026-05-07 01:41 | -35.23503 | -58.73677 | 11716 ft | 292 kts | 38° |
| 2026-05-07 01:41 | -35.21920 | -58.72166 | 11448 ft | 291 kts | 38° |
| 2026-05-07 01:41 | -35.20336 | -58.70655 | 11180 ft | 291 kts | 38° |
| 2026-05-07 01:42 | -35.18733 | -58.69127 | 10910 ft | 291 kts | 38° |
| 2026-05-07 01:42 | -35.17147 | -58.67616 | 10642 ft | 290 kts | 38° |
| 2026-05-07 01:42 | -35.15553 | -58.66098 | 10372 ft | 290 kts | 37° |
| 2026-05-07 01:42 | -35.13972 | -58.64594 | 10105 ft | 290 kts | 37° |
| 2026-05-07 01:43 | -35.12383 | -58.63082 | 9837 ft | 290 kts | 37° |
| 2026-05-07 01:43 | -35.10787 | -58.61568 | 9571 ft | 290 kts | 37° |
| 2026-05-07 01:43 | -35.09212 | -58.60075 | 9331 ft | 288 kts | 37° |
| 2026-05-07 01:43 | -35.07624 | -58.58569 | 9087 ft | 288 kts | 37° |
| 2026-05-07 01:44 | -35.06049 | -58.57074 | 8854 ft | 287 kts | 37° |
| 2026-05-07 01:44 | -35.04496 | -58.55601 | 8627 ft | 286 kts | 37° |
| 2026-05-07 01:44 | -35.02932 | -58.54113 | 8408 ft | 285 kts | 37° |
| 2026-05-07 01:44 | -35.01382 | -58.52633 | 8200 ft | 283 kts | 37° |
| 2026-05-07 01:45 | -34.99820 | -58.51148 | 7991 ft | 278 kts | 36° |
| 2026-05-07 01:45 | -34.98376 | -58.49779 | 7654 ft | 256 kts | 36° |
| 2026-05-07 01:45 | -34.97022 | -58.48495 | 7371 ft | 238 kts | 36° |
| 2026-05-07 01:45 | -34.95745 | -58.47285 | 7124 ft | 224 kts | 36° |
| 2026-05-07 01:46 | -34.94551 | -58.46155 | 6906 ft | 212 kts | 35° |
| 2026-05-07 01:46 | -34.93415 | -58.45080 | 6705 ft | 202 kts | 35° |
| 2026-05-07 01:46 | -34.92341 | -58.44065 | 6518 ft | 194 kts | 35° |
| 2026-05-07 01:46 | -34.91289 | -58.43071 | 6338 ft | 187 kts | 35° |
| 2026-05-07 01:47 | -34.90272 | -58.42110 | 6165 ft | 181 kts | 35° |
| 2026-05-07 01:47 | -34.89294 | -58.41186 | 6001 ft | 176 kts | 35° |
| 2026-05-07 01:47 | -34.88332 | -58.40277 | 5840 ft | 172 kts | 34° |
| 2026-05-07 01:47 | -34.87406 | -58.39404 | 5685 ft | 169 kts | 34° |
| 2026-05-07 01:48 | -34.86468 | -58.38520 | 5530 ft | 171 kts | 35° |
| 2026-05-07 01:48 | -34.85524 | -58.37627 | 5371 ft | 171 kts | 35° |
| 2026-05-07 01:48 | -34.84595 | -58.36751 | 5258 ft | 164 kts | 35° |
| 2026-05-07 01:48 | -34.83738 | -58.35940 | 5260 ft | 150 kts | 34° |
| 2026-05-07 01:49 | -34.82926 | -58.35174 | 5231 ft | 146 kts | 34° |
| 2026-05-07 01:49 | -34.82114 | -58.34412 | 5080 ft | 150 kts | 34° |
| 2026-05-07 01:49 | -34.81276 | -58.33624 | 4922 ft | 155 kts | 34° |
| 2026-05-07 01:49 | -34.80412 | -58.32811 | 4756 ft | 159 kts | 34° |
| 2026-05-07 01:50 | -34.79530 | -58.31978 | 4582 ft | 158 kts | 34° |
| 2026-05-07 01:50 | -34.78697 | -58.31192 | 4416 ft | 148 kts | 34° |
| 2026-05-07 01:50 | -34.77906 | -58.30446 | 4400 ft | 136 kts | 34° |
| 2026-05-07 01:50 | -34.77168 | -58.29752 | 5081 ft | 135 kts | 34° |
| 2026-05-07 01:51 | -34.76465 | -58.29092 | 5834 ft | 128 kts | 34° |
| 2026-05-07 01:51 | -34.75801 | -58.28468 | 6560 ft | 120 kts | 34° |
| 2026-05-07 01:51 | -34.75164 | -58.27870 | 7197 ft | 120 kts | 34° |
| 2026-05-07 01:51 | -34.74562 | -58.27301 | 7907 ft | 108 kts | 34° |
| 2026-05-07 01:52 | -34.73998 | -58.26770 | 8532 ft | 103 kts | 34° |
| 2026-05-07 01:52 | -34.73452 | -58.26258 | 9117 ft | 100 kts | 34° |
| 2026-05-07 01:52 | -34.72818 | -58.25668 | 9444 ft | 130 kts | 35° |
| 2026-05-07 01:52 | -34.72104 | -58.24997 | 10106 ft | 131 kts | 35° |
| 2026-05-07 01:53 | -34.71355 | -58.24393 | 10714 ft | 137 kts | 18° |
| 2026-05-07 01:53 | -34.70330 | -58.24107 | 10770 ft | 162 kts | 5° |
| 2026-05-07 01:53 | -34.69188 | -58.23977 | 10382 ft | 172 kts | 1° |
| 2026-05-07 01:53 | -34.67953 | -58.23896 | 9813 ft | 180 kts | 0° |
| 2026-05-07 01:54 | -34.66742 | -58.23957 | 9216 ft | 168 kts | 341° |
| 2026-05-07 01:54 | -34.66045 | -58.24553 | 8916 ft | 105 kts | 313° |
| 2026-05-07 01:54 | -34.65529 | -58.25158 | 8285 ft | 105 kts | 311° |
| 2026-05-07 01:54 | -34.65051 | -58.25767 | 7774 ft | 95 kts | 307° |
| 2026-05-07 01:55 | -34.64658 | -58.26320 | 7615 ft | 84 kts | 307° |
| 2026-05-07 01:55 | -34.64299 | -58.26829 | 7360 ft | 78 kts | 309° |
| 2026-05-07 01:55 | -34.63947 | -58.27308 | 7083 ft | 77 kts | 308° |
| 2026-05-07 01:55 | -34.63617 | -58.27802 | 6825 ft | 75 kts | 304° |
| 2026-05-07 01:56 | -34.63298 | -58.28299 | 6587 ft | 73 kts | 305° |
| 2026-05-07 01:56 | -34.62993 | -58.28837 | 6353 ft | 88 kts | 301° |
| 2026-05-07 01:56 | -34.62611 | -58.29516 | 6038 ft | 108 kts | 303° |
| 2026-05-07 01:56 | -34.62191 | -58.30259 | 5807 ft | 108 kts | 302° |
| 2026-05-07 01:57 | -34.61801 | -58.31015 | 5613 ft | 106 kts | 301° |
| 2026-05-07 01:57 | -34.61389 | -58.31774 | 5369 ft | 107 kts | 304° |
| 2026-05-07 01:57 | -34.60981 | -58.32509 | 5203 ft | 104 kts | 302° |
| 2026-05-07 01:57 | -34.60563 | -58.33203 | 5072 ft | 99 kts | 304° |
| 2026-05-07 01:58 | -34.60136 | -58.33879 | 4881 ft | 110 kts | 304° |
| 2026-05-07 01:58 | -34.59702 | -58.34680 | 4573 ft | 105 kts | 302° |
| 2026-05-07 01:58 | -34.59319 | -58.35389 | 4064 ft | 99 kts | 302° |
| 2026-05-07 01:58 | -34.58965 | -58.36092 | 3514 ft | 101 kts | 304° |
| 2026-05-07 01:59 | -34.58604 | -58.36810 | 2922 ft | 101 kts | 301° |
| 2026-05-07 01:59 | -34.58228 | -58.37496 | 2372 ft | 99 kts | 305° |
| 2026-05-07 01:59 | -34.57837 | -58.38160 | 1860 ft | 96 kts | 305° |
| 2026-05-07 01:59 | -34.57481 | -58.38811 | 1354 ft | 96 kts | 306° |
| 2026-05-07 02:00 | -34.57101 | -58.39459 | 839 ft | 95 kts | 305° |
| 2026-05-07 02:00 | -34.56745 | -58.40103 | 387 ft | 90 kts | 306° |
| 2026-05-07 02:00 | -34.56411 | -58.40705 | 41 ft | 79 kts | 306° |
| 2026-05-07 02:00 | -34.56146 | -58.41170 | 31 ft | 56 kts | 304° |
| 2026-05-07 02:01 | -34.55952 | -58.41521 | 27 ft | 45 kts | 304° |
| 2026-05-07 02:01 | -34.55810 | -58.41782 | 22 ft | 25 kts | 301° |
| 2026-05-07 02:01 | -34.55759 | -58.41836 | 22 ft | 8 kts | 9° |
| 2026-05-07 02:01 | -34.55737 | -58.41815 | 23 ft | 0 kts | 56° |
| 2026-05-07 02:03 | -34.55737 | -58.41814 | 23 ft | 0 kts | 56° |
| 2026-05-07 02:04 | -34.55726 | -58.41796 | 24 ft | 0 kts | 54° |
| 2026-05-07 02:04 | -34.55725 | -58.41787 | 24 ft | 5 kts | 91° |
| 2026-05-07 02:04 | -34.55748 | -58.41678 | 24 ft | 18 kts | 103° |
| 2026-05-07 02:04 | -34.55779 | -58.41631 | 25 ft | 9 kts | 117° |
| 2026-05-07 02:05 | -34.55822 | -58.41542 | 27 ft | 14 kts | 117° |
| 2026-05-07 02:05 | -34.55874 | -58.41418 | 28 ft | 18 kts | 117° |
| 2026-05-07 02:05 | -34.55941 | -58.41268 | 28 ft | 22 kts | 127° |
| 2026-05-07 02:05 | -34.56043 | -58.41106 | 27 ft | 25 kts | 128° |
| 2026-05-07 02:06 | -34.56142 | -58.40947 | 27 ft | 3 kts | 117° |
| 2026-05-07 02:06 | -34.56149 | -58.40935 | 27 ft | 2 kts | 162° |
| 2026-05-07 02:06 | -34.56170 | -58.41007 | 28 ft | 13 kts | 236° |
| 2026-05-07 02:06 | -34.56243 | -58.41117 | 30 ft | 20 kts | 213° |
| 2026-05-07 02:07 | -34.56318 | -58.41168 | 31 ft | 0 kts | 198° |
| 2026-05-07 02:07 | -34.56361 | -58.41177 | 31 ft | 10 kts | 151° |
| 2026-05-07 02:07 | -34.56407 | -58.41096 | 30 ft | 0 kts | 129° |
| 2026-05-07 02:08 | -34.56409 | -58.41094 | 30 ft | 2 kts | 131° |
| 2026-05-07 02:08 | -34.56435 | -58.41053 | 29 ft | 10 kts | 122° |
| 2026-05-07 02:08 | -34.56489 | -58.40953 | 30 ft | 17 kts | 122° |
| 2026-05-07 02:08 | -34.56548 | -58.40858 | 28 ft | 5 kts | 181° |
| 2026-05-07 02:09 | -34.56550 | -58.40858 | 28 ft | 0 kts | 194° |